Time;durP1;ratioP1;P1;durP2;ratioP2;P2;SDS_P1;SDS_P2;PMS_P1;PMS_P2;Temp;Humidity;BMP_temperature;BMP_pressure;BME280_temperature;BME280_humidity;BME280_pressure;Samples;Min_cycle;Max_cycle;Signal;HPM_P1;HPM_P2
2021/05/21 00:02:14;;;;;;;;;;;20.60;54.70;;;;;;5035202;28;19929;-69
2021/05/21 00:04:40;;;;;;;;;;;20.60;54.70;;;;;;5042917;28;19994;-68
2021/05/21 00:07:06;;;;;;;;;;;20.60;54.70;;;;;;5025282;28;19929;-69
2021/05/21 00:09:32;;;;;;;;;;;20.60;54.60;;;;;;5051751;28;20285;-69
2021/05/21 00:11:58;;;;;;;;;;;20.60;54.70;;;;;;5027177;28;20394;-66
2021/05/21 00:14:24;;;;;;;;;;;20.60;54.80;;;;;;5036890;28;19929;-66
2021/05/21 00:16:50;;;;;;;;;;;20.60;54.70;;;;;;5039829;28;19943;-67
2021/05/21 00:19:17;;;;;;;;;;;20.60;54.80;;;;;;5053755;28;19932;-71
2021/05/21 00:21:43;;;;;;;;;;;20.60;54.80;;;;;;5022574;28;19932;-68
2021/05/21 00:24:09;;;;;;;;;;;20.70;54.70;;;;;;5040455;28;21005;-68
2021/05/21 00:26:36;;;;;;;;;;;20.70;54.80;;;;;;5050559;28;19929;-68
2021/05/21 00:29:02;;;;;;;;;;;20.60;54.60;;;;;;5039691;28;20458;-67
2021/05/21 00:31:28;;;;;;;;;;;20.70;54.50;;;;;;5049984;28;19935;-67
2021/05/21 00:33:54;;;;;;;;;;;20.70;54.60;;;;;;5040034;28;19928;-68
2021/05/21 00:36:21;;;;;;;;;;;20.60;54.30;;;;;;5054115;28;19936;-69
2021/05/21 00:38:47;;;;;;;;;;;20.60;54.40;;;;;;5017723;28;19924;-68
2021/05/21 00:41:13;;;;;;;;;;;20.60;54.40;;;;;;5050826;28;19928;-68
2021/05/21 00:43:39;;;;;;;;;;;20.60;54.50;;;;;;5050549;28;20092;-69
2021/05/21 00:46:05;;;;;;;;;;;20.60;54.40;;;;;;5021344;28;19929;-69
2021/05/21 00:48:31;;;;;;;;;;;20.60;54.50;;;;;;5047438;28;19959;-69
2021/05/21 00:50:57;;;;;;;;;;;20.60;54.70;;;;;;5037167;28;19998;-69
2021/05/21 00:53:26;;;;;;;;;;;20.60;54.50;;;;;;5026202;28;19928;-68
2021/05/21 00:55:52;;;;;;;;;;;20.70;54.70;;;;;;5052109;28;19982;-67
2021/05/21 00:58:18;;;;;;;;;;;20.70;54.50;;;;;;5051878;28;19928;-68
2021/05/21 01:00:44;;;;;;;;;;;20.70;54.50;;;;;;5035403;28;20401;-67
2021/05/21 01:03:10;;;;;;;;;;;20.70;54.50;;;;;;5048678;28;19990;-69
2021/05/21 01:05:36;;;;;;;;;;;20.70;54.40;;;;;;5051797;28;19933;-69
2021/05/21 01:08:02;;;;;;;;;;;20.70;54.40;;;;;;5041112;28;20555;-68
2021/05/21 01:10:29;;;;;;;;;;;20.70;54.30;;;;;;5050760;28;19936;-68
2021/05/21 01:12:55;;;;;;;;;;;20.70;54.30;;;;;;5030358;28;19987;-70
2021/05/21 01:15:21;;;;;;;;;;;20.70;54.50;;;;;;5047329;28;19929;-69
2021/05/21 01:17:47;;;;;;;;;;;20.70;54.50;;;;;;5032413;28;20269;-69
2021/05/21 01:20:13;;;;;;;;;;;20.70;54.70;;;;;;5048808;28;20313;-69
2021/05/21 01:22:40;;;;;;;;;;;20.70;54.50;;;;;;5032323;28;19928;-69
2021/05/21 01:25:06;;;;;;;;;;;20.70;54.40;;;;;;5036371;28;20419;-67
2021/05/21 01:27:32;;;;;;;;;;;20.70;54.50;;;;;;5019331;28;19928;-68
2021/05/21 01:29:58;;;;;;;;;;;20.70;54.50;;;;;;5036370;28;19932;-68
2021/05/21 01:32:24;;;;;;;;;;;20.70;54.50;;;;;;5042992;28;19968;-68
2021/05/21 01:34:50;;;;;;;;;;;20.70;54.30;;;;;;5051739;28;19933;-67
2021/05/21 01:37:17;;;;;;;;;;;20.70;54.30;;;;;;5039033;28;19924;-69
2021/05/21 01:39:44;;;;;;;;;;;20.70;54.20;;;;;;5050005;28;19935;-68
2021/05/21 01:42:10;;;;;;;;;;;20.70;54.20;;;;;;5048519;28;19936;-70
2021/05/21 01:44:36;;;;;;;;;;;20.70;54.40;;;;;;5050482;28;20457;-67
2021/05/21 01:47:02;;;;;;;;;;;20.70;54.20;;;;;;5032362;28;21041;-69
2021/05/21 01:49:28;;;;;;;;;;;20.70;54.30;;;;;;5027595;28;19974;-71
2021/05/21 01:51:57;;;;;;;;;;;20.70;55.00;;;;;;4985775;28;19929;-68
2021/05/21 01:54:23;;;;;;;;;;;20.60;54.20;;;;;;5001891;28;19966;-67
2021/05/21 01:56:52;;;;;;;;;;;20.60;54.20;;;;;;5036485;28;19929;-68
2021/05/21 01:59:18;;;;;;;;;;;20.60;54.30;;;;;;5050298;28;19929;-68
2021/05/21 02:01:44;;;;;;;;;;;20.60;54.30;;;;;;5004484;28;19933;-68
2021/05/21 02:04:10;;;;;;;;;;;20.60;54.20;;;;;;5029914;28;19951;-66
2021/05/21 02:06:36;;;;;;;;;;;20.60;54.20;;;;;;5049625;28;20682;-68
2021/05/21 02:09:02;;;;;;;;;;;20.60;54.20;;;;;;5034373;28;19935;-69
2021/05/21 02:11:28;;;;;;;;;;;20.60;54.30;;;;;;5050352;28;19929;-68
2021/05/21 02:13:55;;;;;;;;;;;20.70;54.50;;;;;;5042361;28;19936;-68
2021/05/21 02:16:21;;;;;;;;;;;20.60;54.40;;;;;;5031434;28;19929;-69
2021/05/21 02:18:47;;;;;;;;;;;20.60;54.30;;;;;;5025945;28;19978;-69
2021/05/21 02:21:13;;;;;;;;;;;20.70;54.40;;;;;;5008404;28;19981;-68
2021/05/21 02:23:39;;;;;;;;;;;20.70;54.60;;;;;;5006453;28;20550;-67
2021/05/21 02:26:05;;;;;;;;;;;20.70;54.20;;;;;;5033668;28;19929;-67
2021/05/21 02:28:31;;;;;;;;;;;20.70;54.20;;;;;;5038028;28;19936;-69
2021/05/21 02:31:00;;;;;;;;;;;20.70;54.20;;;;;;5039541;28;19936;-67
2021/05/21 02:33:26;;;;;;;;;;;20.70;54.20;;;;;;5048390;28;19928;-68
2021/05/21 02:35:52;;;;;;;;;;;20.60;54.00;;;;;;5019256;28;19929;-69
2021/05/21 02:38:18;;;;;;;;;;;20.70;54.20;;;;;;5030127;28;20416;-68
2021/05/21 02:40:45;;;;;;;;;;;20.70;54.10;;;;;;5045026;28;20953;-66
2021/05/21 02:43:11;;;;;;;;;;;20.70;54.20;;;;;;5027339;28;19929;-68
2021/05/21 02:45:37;;;;;;;;;;;20.70;54.20;;;;;;5016346;28;20348;-69
2021/05/21 02:48:04;;;;;;;;;;;20.60;54.20;;;;;;5031992;28;21173;-67
2021/05/21 02:50:30;;;;;;;;;;;20.60;54.00;;;;;;5038001;28;20822;-69
2021/05/21 02:52:56;;;;;;;;;;;20.60;54.10;;;;;;5031860;28;20450;-67
2021/05/21 02:55:22;;;;;;;;;;;20.60;54.10;;;;;;4990911;28;19929;-67
2021/05/21 02:57:48;;;;;;;;;;;20.60;54.10;;;;;;5034371;28;19928;-69
2021/05/21 03:00:15;;;;;;;;;;;20.60;54.20;;;;;;5047829;28;19936;-69
2021/05/21 03:02:41;;;;;;;;;;;20.70;54.30;;;;;;5048742;28;20391;-67
2021/05/21 03:05:08;;;;;;;;;;;20.70;54.30;;;;;;5025388;28;19933;-67
2021/05/21 03:07:34;;;;;;;;;;;20.70;54.30;;;;;;5036981;28;20401;-68
2021/05/21 03:10:00;;;;;;;;;;;20.70;54.10;;;;;;5046388;28;19935;-68
2021/05/21 03:12:26;;;;;;;;;;;20.70;53.70;;;;;;5049390;28;19932;-68
2021/05/21 03:14:52;;;;;;;;;;;20.70;53.80;;;;;;5047054;28;19925;-69
2021/05/21 03:17:18;;;;;;;;;;;20.70;53.80;;;;;;5048993;28;19940;-69
2021/05/21 03:19:46;;;;;;;;;;;20.80;53.90;;;;;;5048940;28;19929;-68
2021/05/21 03:22:13;;;;;;;;;;;20.80;53.90;;;;;;5048747;28;19932;-67
2021/05/21 03:24:39;;;;;;;;;;;20.80;53.90;;;;;;5028135;28;19932;-69
2021/05/21 03:27:05;;;;;;;;;;;20.90;53.80;;;;;;5013437;28;20913;-68
2021/05/21 03:29:31;;;;;;;;;;;20.90;53.60;;;;;;5029069;28;19936;-68
2021/05/21 03:31:57;;;;;;;;;;;21.00;53.70;;;;;;5038394;28;19928;-69
2021/05/21 03:34:23;;;;;;;;;;;20.90;53.50;;;;;;5048823;28;19935;-67
2021/05/21 03:36:49;;;;;;;;;;;20.90;53.40;;;;;;5034383;28;19925;-69
2021/05/21 03:39:16;;;;;;;;;;;20.90;53.50;;;;;;5037237;28;19928;-67
2021/05/21 03:41:42;;;;;;;;;;;20.90;53.40;;;;;;5042747;28;19932;-67
2021/05/21 03:44:08;;;;;;;;;;;20.90;53.40;;;;;;5044030;28;19950;-68
2021/05/21 03:46:34;;;;;;;;;;;20.90;53.50;;;;;;5034583;28;19943;-68
2021/05/21 03:49:01;;;;;;;;;;;20.90;53.60;;;;;;5017514;28;20305;-67
2021/05/21 03:51:27;;;;;;;;;;;20.80;53.30;;;;;;4999335;28;20000;-68
2021/05/21 03:53:55;;;;;;;;;;;20.80;53.50;;;;;;5015279;28;19940;-70
2021/05/21 03:56:22;;;;;;;;;;;20.80;53.40;;;;;;5042123;28;19936;-69
2021/05/21 03:58:48;;;;;;;;;;;20.80;53.60;;;;;;5046946;28;19982;-67
2021/05/21 04:01:14;;;;;;;;;;;20.80;53.60;;;;;;5042878;28;20380;-67
2021/05/21 04:03:40;;;;;;;;;;;20.80;53.70;;;;;;5036738;28;19928;-67
2021/05/21 04:06:06;;;;;;;;;;;20.80;53.70;;;;;;5031996;28;19929;-69
2021/05/21 04:08:32;;;;;;;;;;;20.80;53.70;;;;;;5042591;28;20352;-67
2021/05/21 04:10:58;;;;;;;;;;;20.80;53.60;;;;;;5047184;28;19968;-69
2021/05/21 04:13:25;;;;;;;;;;;20.80;53.90;;;;;;5034636;28;19928;-68
2021/05/21 04:15:51;;;;;;;;;;;20.80;53.80;;;;;;5040556;28;19929;-68
2021/05/21 04:18:17;;;;;;;;;;;20.90;53.60;;;;;;5046636;28;19936;-69
2021/05/21 04:20:43;;;;;;;;;;;20.90;53.80;;;;;;5036691;28;20433;-68
2021/05/21 04:23:09;;;;;;;;;;;20.90;53.80;;;;;;5027943;28;20098;-69
2021/05/21 04:25:35;;;;;;;;;;;20.90;53.40;;;;;;5051393;28;20010;-68
2021/05/21 04:28:01;;;;;;;;;;;20.90;53.50;;;;;;5051307;28;19925;-69
2021/05/21 04:30:28;;;;;;;;;;;20.90;53.70;;;;;;5055927;28;19929;-69
2021/05/21 04:32:54;;;;;;;;;;;20.90;53.70;;;;;;5053785;28;20491;-69
2021/05/21 04:35:20;;;;;;;;;;;20.90;53.70;;;;;;5048679;28;19939;-70
2021/05/21 04:37:46;;;;;;;;;;;20.90;53.60;;;;;;5026571;28;19929;-68
2021/05/21 04:40:13;;;;;;;;;;;21.00;53.70;;;;;;5034359;28;19963;-69
2021/05/21 04:42:39;;;;;;;;;;;21.00;53.70;;;;;;5044000;28;19932;-68
2021/05/21 04:45:06;;;;;;;;;;;21.00;53.60;;;;;;5051419;28;19932;-71
2021/05/21 04:47:33;;;;;;;;;;;21.00;53.60;;;;;;5041930;28;20015;-67
2021/05/21 04:49:59;;;;;;;;;;;21.00;53.50;;;;;;5048991;28;19997;-71
2021/05/21 04:52:25;;;;;;;;;;;21.00;53.70;;;;;;5051572;28;19929;-68
2021/05/21 04:54:51;;;;;;;;;;;21.00;53.50;;;;;;5023413;28;19929;-70
2021/05/21 04:57:17;;;;;;;;;;;21.00;53.70;;;;;;5048937;28;20400;-68
2021/05/21 04:59:43;;;;;;;;;;;20.90;53.60;;;;;;5034376;28;19936;-67
2021/05/21 05:02:09;;;;;;;;;;;20.90;53.60;;;;;;5049999;28;19936;-68
2021/05/21 05:04:36;;;;;;;;;;;20.90;53.70;;;;;;5041373;28;20630;-68
2021/05/21 05:07:02;;;;;;;;;;;20.90;53.60;;;;;;5048687;28;20930;-68
2021/05/21 05:09:28;;;;;;;;;;;21.00;53.70;;;;;;5050429;28;20355;-68
2021/05/21 05:11:55;;;;;;;;;;;21.00;53.70;;;;;;5051225;28;19928;-68
2021/05/21 05:14:21;;;;;;;;;;;21.00;53.50;;;;;;5041771;28;19932;-68
2021/05/21 05:16:48;;;;;;;;;;;21.00;53.70;;;;;;5051120;28;19929;-68
2021/05/21 05:19:14;;;;;;;;;;;21.00;53.70;;;;;;5020404;28;19936;-69
2021/05/21 05:21:41;;;;;;;;;;;20.90;53.60;;;;;;5044970;28;20611;-69
2021/05/21 05:24:08;;;;;;;;;;;20.90;53.60;;;;;;5048091;28;20388;-68
2021/05/21 05:26:34;;;;;;;;;;;20.90;53.50;;;;;;5037982;28;19986;-70
2021/05/21 05:29:00;;;;;;;;;;;20.90;53.60;;;;;;5025396;28;19954;-69
2021/05/21 05:31:26;;;;;;;;;;;20.90;53.60;;;;;;5052397;28;19935;-68
2021/05/21 05:33:52;;;;;;;;;;;20.90;53.60;;;;;;5051135;28;19928;-68
2021/05/21 05:36:18;;;;;;;;;;;20.90;53.60;;;;;;5050386;28;19952;-69
2021/05/21 05:38:45;;;;;;;;;;;20.90;53.70;;;;;;4990114;28;20475;-69
2021/05/21 05:41:11;;;;;;;;;;;20.90;53.80;;;;;;5021816;28;19928;-68
2021/05/21 05:43:37;;;;;;;;;;;20.90;53.80;;;;;;5050630;28;19929;-68
2021/05/21 05:46:04;;;;;;;;;;;20.90;53.90;;;;;;5051103;28;19932;-68
2021/05/21 05:48:31;;;;;;;;;;;20.90;53.80;;;;;;5039538;28;20801;-70
2021/05/21 05:50:57;;;;;;;;;;;20.90;53.90;;;;;;5046083;28;19936;-69
2021/05/21 05:53:23;;;;;;;;;;;20.90;53.80;;;;;;5050329;28;20190;-67
2021/05/21 05:55:50;;;;;;;;;;;20.90;53.80;;;;;;5026139;28;19951;-68
2021/05/21 05:58:16;;;;;;;;;;;20.90;53.70;;;;;;4998865;28;19929;-68
2021/05/21 06:00:42;;;;;;;;;;;20.90;53.80;;;;;;5014544;28;20324;-68
2021/05/21 06:03:08;;;;;;;;;;;20.90;53.90;;;;;;5002468;28;20294;-68
2021/05/21 06:05:34;;;;;;;;;;;20.90;53.90;;;;;;5046128;28;20023;-69
2021/05/21 06:08:02;;;;;;;;;;;20.80;53.90;;;;;;5040541;28;19935;-68
2021/05/21 06:10:28;;;;;;;;;;;20.80;53.90;;;;;;5045727;28;19981;-69
2021/05/21 06:12:58;;;;;;;;;;;20.80;53.90;;;;;;5049871;28;19928;-68
2021/05/21 06:15:24;;;;;;;;;;;20.80;53.80;;;;;;5036426;28;19936;-68
2021/05/21 06:17:52;;;;;;;;;;;20.80;53.70;;;;;;5035945;28;19928;-67
2021/05/21 06:20:18;;;;;;;;;;;20.80;53.80;;;;;;5034024;28;19929;-68
2021/05/21 06:22:44;;;;;;;;;;;20.80;53.70;;;;;;5036846;28;19928;-68
2021/05/21 06:25:11;;;;;;;;;;;20.80;53.80;;;;;;5024571;28;21016;-69
2021/05/21 06:27:37;;;;;;;;;;;20.80;54.00;;;;;;5045188;28;19932;-68
2021/05/21 06:30:08;;;;;;;;;;;20.80;53.90;;;;;;5039111;28;20885;-67
2021/05/21 06:32:34;;;;;;;;;;;20.90;53.90;;;;;;5035168;28;19929;-69
2021/05/21 06:35:00;;;;;;;;;;;20.90;53.80;;;;;;5047569;28;19929;-70
2021/05/21 06:37:28;;;;;;;;;;;20.90;53.80;;;;;;5023955;28;20324;-67
2021/05/21 06:39:54;;;;;;;;;;;20.90;53.80;;;;;;5013868;28;19929;-67
2021/05/21 06:42:20;;;;;;;;;;;20.90;53.70;;;;;;5035201;28;19929;-68
2021/05/21 06:44:46;;;;;;;;;;;21.00;53.70;;;;;;5037630;28;19932;-68
2021/05/21 06:47:13;;;;;;;;;;;21.00;53.80;;;;;;5041917;28;20446;-68
2021/05/21 06:49:39;;;;;;;;;;;21.00;53.50;;;;;;5026309;28;20961;-70
2021/05/21 06:52:05;;;;;;;;;;;20.90;53.60;;;;;;5047109;28;19928;-70
2021/05/21 06:54:31;;;;;;;;;;;20.90;53.60;;;;;;5037119;28;19928;-67
2021/05/21 06:56:57;;;;;;;;;;;20.90;53.60;;;;;;5006400;28;19925;-68
2021/05/21 06:59:23;;;;;;;;;;;20.90;53.70;;;;;;5028118;28;20766;-68
2021/05/21 07:01:49;;;;;;;;;;;20.90;53.80;;;;;;5038619;28;19936;-69
2021/05/21 07:04:16;;;;;;;;;;;20.90;54.50;;;;;;5047375;28;19928;-67
2021/05/21 07:06:42;;;;;;;;;;;20.90;53.80;;;;;;5037690;28;19928;-68
2021/05/21 07:09:08;;;;;;;;;;;20.90;53.50;;;;;;5039389;28;19929;-69
2021/05/21 07:11:35;;;;;;;;;;;20.90;53.70;;;;;;5036543;28;19963;-71
2021/05/21 07:14:03;;;;;;;;;;;20.90;53.70;;;;;;5048408;28;19932;-67
2021/05/21 07:16:29;;;;;;;;;;;20.90;53.60;;;;;;5046756;28;19999;-70
2021/05/21 07:18:55;;;;;;;;;;;20.90;53.50;;;;;;5048915;28;19928;-67
2021/05/21 07:21:21;;;;;;;;;;;20.90;53.50;;;;;;5046753;28;19929;-68
2021/05/21 07:23:50;;;;;;;;;;;20.90;53.60;;;;;;5047718;28;19933;-69
2021/05/21 07:26:16;;;;;;;;;;;20.90;53.50;;;;;;5045507;28;20006;-69
2021/05/21 07:28:42;;;;;;;;;;;20.90;53.70;;;;;;5043870;28;19933;-69
2021/05/21 07:31:08;;;;;;;;;;;20.90;53.70;;;;;;5035641;28;19928;-69
2021/05/21 07:33:36;;;;;;;;;;;20.90;53.70;;;;;;5046555;28;19974;-68
2021/05/21 07:36:02;;;;;;;;;;;20.90;53.70;;;;;;5036196;28;19932;-71
2021/05/21 07:38:30;;;;;;;;;;;20.90;53.70;;;;;;5027660;28;20359;-68
2021/05/21 07:40:56;;;;;;;;;;;20.90;53.60;;;;;;5036242;28;19925;-67
2021/05/21 07:43:22;;;;;;;;;;;20.90;53.60;;;;;;5036808;28;19935;-69
2021/05/21 07:45:48;;;;;;;;;;;20.90;53.60;;;;;;5037925;28;20498;-67
2021/05/21 07:48:14;;;;;;;;;;;20.80;53.70;;;;;;5049310;28;19928;-69
2021/05/21 07:50:40;;;;;;;;;;;20.80;53.70;;;;;;5037733;28;19928;-67
2021/05/21 07:53:06;;;;;;;;;;;20.80;53.70;;;;;;5043781;28;19928;-69
2021/05/21 07:55:33;;;;;;;;;;;20.80;53.80;;;;;;5022274;28;19929;-68
2021/05/21 07:57:59;;;;;;;;;;;20.80;53.80;;;;;;4986213;28;20595;-68
2021/05/21 08:00:25;;;;;;;;;;;20.80;53.70;;;;;;5031733;28;19929;-68
2021/05/21 08:02:51;;;;;;;;;;;20.80;53.90;;;;;;5049882;28;19936;-68
2021/05/21 08:05:17;;;;;;;;;;;20.80;53.90;;;;;;5051710;28;19929;-69
2021/05/21 08:07:43;;;;;;;;;;;20.80;53.90;;;;;;5052126;28;19936;-68
2021/05/21 08:10:10;;;;;;;;;;;20.80;53.80;;;;;;5052579;28;19935;-68
2021/05/21 08:12:36;;;;;;;;;;;20.80;53.80;;;;;;5037709;28;20082;-69
2021/05/21 08:15:03;;;;;;;;;;;20.80;53.90;;;;;;5052152;28;19978;-68
2021/05/21 08:17:31;;;;;;;;;;;20.80;54.00;;;;;;5049673;28;20295;-71
2021/05/21 08:19:58;;;;;;;;;;;20.80;54.00;;;;;;5052239;28;20030;-67
2021/05/21 08:22:24;;;;;;;;;;;20.80;54.00;;;;;;5047501;28;19935;-68
2021/05/21 08:24:50;;;;;;;;;;;20.80;54.10;;;;;;5040034;28;19936;-70
2021/05/21 08:27:16;;;;;;;;;;;20.80;54.10;;;;;;5049282;28;19936;-68
2021/05/21 08:29:43;;;;;;;;;;;20.80;54.20;;;;;;5051144;28;19932;-69
2021/05/21 08:32:09;;;;;;;;;;;20.80;54.20;;;;;;5024542;28;20031;-68
2021/05/21 08:34:35;;;;;;;;;;;20.80;54.20;;;;;;5044936;28;20387;-68
2021/05/21 08:37:01;;;;;;;;;;;20.80;54.30;;;;;;5036115;28;19929;-67
2021/05/21 08:39:27;;;;;;;;;;;20.80;54.40;;;;;;5051051;28;19982;-69
2021/05/21 08:41:54;;;;;;;;;;;20.80;54.50;;;;;;5034863;28;19932;-68
2021/05/21 08:44:20;;;;;;;;;;;20.70;54.50;;;;;;5050840;28;19929;-67
2021/05/21 08:46:46;;;;;;;;;;;20.70;54.60;;;;;;5048779;28;19932;-67
2021/05/21 08:49:12;;;;;;;;;;;20.70;54.60;;;;;;5051057;28;19932;-67
2021/05/21 08:51:38;;;;;;;;;;;20.70;54.70;;;;;;5048647;28;19929;-68
2021/05/21 08:54:07;;;;;;;;;;;20.70;54.80;;;;;;5049160;28;20332;-67
2021/05/21 08:56:33;;;;;;;;;;;20.70;54.70;;;;;;5035668;28;19932;-68
2021/05/21 08:58:59;;;;;;;;;;;20.70;54.80;;;;;;5050841;28;19928;-70
2021/05/21 09:01:27;;;;;;;;;;;20.70;54.80;;;;;;5030562;28;19978;-68
2021/05/21 09:03:59;;;;;;;;;;;20.70;54.80;;;;;;5033692;28;19924;-68
2021/05/21 09:06:26;;;;;;;;;;;20.80;54.90;;;;;;5021663;28;19929;-68
2021/05/21 09:08:52;;;;;;;;;;;20.80;54.70;;;;;;5035483;28;19932;-70
2021/05/21 09:11:22;;;;;;;;;;;20.80;54.60;;;;;;5035821;28;19930;-69
2021/05/21 09:13:50;;;;;;;;;;;20.80;54.60;;;;;;5016647;28;19936;-68
2021/05/21 09:16:19;;;;;;;;;;;20.90;54.60;;;;;;5045439;28;19951;-68
2021/05/21 09:18:58;;;;;;;;;;;20.90;54.50;;;;;;5033971;28;19935;-68
2021/05/21 09:21:24;;;;;;;;;;;20.90;54.50;;;;;;5047984;28;20031;-70
2021/05/21 09:24:00;;;;;;;;;;;20.90;54.50;;;;;;5036596;28;19933;-69
2021/05/21 09:26:28;;;;;;;;;;;20.90;54.40;;;;;;5049002;28;19929;-69
2021/05/21 09:28:54;;;;;;;;;;;20.90;54.40;;;;;;5040380;28;19932;-68
2021/05/21 09:31:22;;;;;;;;;;;20.90;54.60;;;;;;5049121;28;19929;-68
2021/05/21 09:33:49;;;;;;;;;;;20.90;54.40;;;;;;5051164;28;20106;-68
2021/05/21 09:36:16;;;;;;;;;;;20.90;54.40;;;;;;5052598;28;19935;-69
2021/05/21 09:38:46;;;;;;;;;;;20.80;54.40;;;;;;5010073;28;19933;-68
2021/05/21 09:41:12;;;;;;;;;;;20.80;54.50;;;;;;5033751;28;19929;-69
2021/05/21 09:43:38;;;;;;;;;;;20.80;54.30;;;;;;5048812;28;19928;-67
2021/05/21 09:46:07;;;;;;;;;;;20.80;54.40;;;;;;5038714;28;19935;-68
2021/05/21 09:48:34;;;;;;;;;;;20.80;54.30;;;;;;5046416;28;20343;-68
2021/05/21 09:51:00;;;;;;;;;;;20.80;54.30;;;;;;5018856;28;20010;-67
2021/05/21 09:53:27;;;;;;;;;;;20.80;54.30;;;;;;5049726;28;19933;-68
2021/05/21 09:55:53;;;;;;;;;;;20.80;54.40;;;;;;5048567;28;20339;-68
2021/05/21 09:58:23;;;;;;;;;;;20.80;54.40;;;;;;5008106;28;19948;-68
2021/05/21 10:01:05;;;;;;;;;;;20.80;54.40;;;;;;5020318;28;19928;-68
2021/05/21 10:03:31;;;;;;;;;;;20.80;54.30;;;;;;5036988;28;19932;-68
2021/05/21 10:05:57;;;;;;;;;;;20.80;54.10;;;;;;5027421;28;19939;-68
2021/05/21 10:08:23;;;;;;;;;;;20.80;53.90;;;;;;5020796;28;19937;-68
2021/05/21 10:10:50;;;;;;;;;;;20.80;54.30;;;;;;5042398;28;19928;-68
2021/05/21 10:13:16;;;;;;;;;;;20.80;54.20;;;;;;5048447;28;20424;-68
2021/05/21 10:15:42;;;;;;;;;;;20.80;54.10;;;;;;5048020;28;20292;-67
2021/05/21 10:18:10;;;;;;;;;;;20.80;54.10;;;;;;5025838;28;19978;-68
2021/05/21 10:20:36;;;;;;;;;;;20.80;54.10;;;;;;5035570;28;20933;-67
2021/05/21 10:23:02;;;;;;;;;;;20.80;54.20;;;;;;5049837;28;19924;-67
2021/05/21 10:25:29;;;;;;;;;;;20.70;54.00;;;;;;5047393;28;19928;-67
2021/05/21 10:27:56;;;;;;;;;;;20.70;54.30;;;;;;5028072;28;19929;-70
2021/05/21 10:30:22;;;;;;;;;;;20.70;54.40;;;;;;5029377;28;19932;-69
2021/05/21 10:32:48;;;;;;;;;;;20.70;54.00;;;;;;5039908;28;19971;-68
2021/05/21 10:35:15;;;;;;;;;;;20.70;54.00;;;;;;5031913;28;19928;-69
2021/05/21 10:37:41;;;;;;;;;;;20.70;54.10;;;;;;5037687;28;19951;-68
2021/05/21 10:40:09;;;;;;;;;;;20.70;54.10;;;;;;5047016;28;19924;-68
2021/05/21 10:42:39;;;;;;;;;;;20.70;54.00;;;;;;5049052;28;19936;-69
2021/05/21 10:45:09;;;;;;;;;;;20.70;54.10;;;;;;5038606;28;19974;-68
2021/05/21 10:47:36;;;;;;;;;;;20.80;54.00;;;;;;5050497;28;19928;-69
2021/05/21 10:50:05;;;;;;;;;;;20.80;53.80;;;;;;5045423;28;19936;-67
2021/05/21 10:52:46;;;;;;;;;;;20.80;54.10;;;;;;5037967;28;20504;-70
2021/05/21 10:55:12;;;;;;;;;;;20.80;53.70;;;;;;5035799;28;19935;-69
2021/05/21 10:57:38;;;;;;;;;;;20.80;53.80;;;;;;5031606;28;20400;-68
2021/05/21 11:00:05;;;;;;;;;;;20.80;53.80;;;;;;5049465;28;19932;-67
2021/05/21 11:02:48;;;;;;;;;;;20.70;53.60;;;;;;5047632;28;19932;-67
2021/05/21 11:05:22;;;;;;;;;;;20.70;53.60;;;;;;5043954;28;19928;-69
2021/05/21 11:07:49;;;;;;;;;;;20.70;53.50;;;;;;5013916;28;20356;-69
2021/05/21 11:10:24;;;;;;;;;;;20.70;53.60;;;;;;5019593;28;19936;-69
2021/05/21 11:12:51;;;;;;;;;;;20.70;53.70;;;;;;5040187;28;19936;-68
2021/05/21 11:15:34;;;;;;;;;;;20.70;53.80;;;;;;5047024;28;20525;-68
2021/05/21 11:18:08;;;;;;;;;;;20.70;53.80;;;;;;5045689;28;20721;-68
2021/05/21 11:20:49;;;;;;;;;;;20.70;53.80;;;;;;5048321;28;19929;-68
2021/05/21 11:23:16;;;;;;;;;;;20.80;53.90;;;;;;5016754;28;19928;-69
2021/05/21 11:25:48;;;;;;;;;;;20.80;53.90;;;;;;5024929;28;19929;-69
2021/05/21 11:28:14;;;;;;;;;;;20.80;53.70;;;;;;5016888;28;19933;-69
2021/05/21 11:30:40;;;;;;;;;;;20.80;53.70;;;;;;5021522;28;19975;-69
2021/05/21 11:33:06;;;;;;;;;;;20.80;53.60;;;;;;4998383;28;20344;-68
2021/05/21 11:35:32;;;;;;;;;;;20.80;53.80;;;;;;5038210;28;20385;-69
2021/05/21 11:38:00;;;;;;;;;;;20.70;53.50;;;;;;5033122;28;19931;-67
2021/05/21 11:40:27;;;;;;;;;;;20.80;53.70;;;;;;5046728;28;20898;-68
2021/05/21 11:42:53;;;;;;;;;;;20.70;53.60;;;;;;5026782;28;20487;-71
2021/05/21 11:45:19;;;;;;;;;;;20.70;53.70;;;;;;5029018;28;19933;-69
2021/05/21 11:47:46;;;;;;;;;;;20.70;53.60;;;;;;5038086;28;20924;-68
2021/05/21 11:50:12;;;;;;;;;;;20.70;53.70;;;;;;5035116;28;19929;-69
2021/05/21 11:52:38;;;;;;;;;;;20.80;53.80;;;;;;5044434;28;19928;-68
2021/05/21 11:55:05;;;;;;;;;;;20.80;53.90;;;;;;5014802;28;19929;-69
2021/05/21 11:57:32;;;;;;;;;;;20.80;53.80;;;;;;4986546;28;19978;-69
2021/05/21 11:59:58;;;;;;;;;;;20.80;53.70;;;;;;5029793;28;19986;-67
2021/05/21 12:02:24;;;;;;;;;;;20.80;53.70;;;;;;5037162;28;19929;-69
2021/05/21 12:04:50;;;;;;;;;;;20.80;53.70;;;;;;5029402;28;20503;-69
2021/05/21 12:07:16;;;;;;;;;;;20.80;53.80;;;;;;5003514;28;20328;-70
2021/05/21 12:09:49;;;;;;;;;;;20.80;53.80;;;;;;5036850;28;19932;-68
2021/05/21 12:12:15;;;;;;;;;;;20.80;53.80;;;;;;4980193;28;19933;-68
2021/05/21 12:14:42;;;;;;;;;;;20.80;53.90;;;;;;5023600;28;20936;-69
2021/05/21 12:17:08;;;;;;;;;;;20.80;53.80;;;;;;5039125;28;19938;-67
2021/05/21 12:19:34;;;;;;;;;;;20.80;53.80;;;;;;5046583;28;19947;-69
2021/05/21 12:22:02;;;;;;;;;;;20.80;53.70;;;;;;5048580;28;20409;-68
2021/05/21 12:24:28;;;;;;;;;;;20.80;53.70;;;;;;5033986;28;20459;-68
2021/05/21 12:26:54;;;;;;;;;;;20.80;53.70;;;;;;5044955;28;19936;-70
2021/05/21 12:29:21;;;;;;;;;;;20.80;53.60;;;;;;5046563;28;20806;-70
2021/05/21 12:31:48;;;;;;;;;;;20.90;53.60;;;;;;5036475;28;20883;-68
2021/05/21 12:34:15;;;;;;;;;;;20.90;53.50;;;;;;5049314;28;19929;-68
2021/05/21 12:36:41;;;;;;;;;;;21.00;53.60;;;;;;5033541;28;19935;-68
2021/05/21 12:39:08;;;;;;;;;;;21.00;53.30;;;;;;5028981;28;19929;-68
2021/05/21 12:41:34;;;;;;;;;;;21.00;53.30;;;;;;5000724;28;20470;-68
2021/05/21 12:44:09;;;;;;;;;;;21.00;53.20;;;;;;5014431;28;19937;-68
2021/05/21 12:46:39;;;;;;;;;;;21.00;53.20;;;;;;5035831;28;19934;-69
2021/05/21 12:49:07;;;;;;;;;;;21.00;53.20;;;;;;5042840;28;20968;-68
2021/05/21 12:51:33;;;;;;;;;;;21.00;53.30;;;;;;5049321;28;19935;-68
2021/05/21 12:54:14;;;;;;;;;;;21.00;53.60;;;;;;5049449;28;20381;-70
2021/05/21 12:56:40;;;;;;;;;;;21.00;53.20;;;;;;5047268;28;19933;-69
2021/05/21 12:59:06;;;;;;;;;;;21.00;53.30;;;;;;4990399;28;20278;-68
2021/05/21 13:01:32;;;;;;;;;;;21.00;53.30;;;;;;5035415;28;19955;-68
2021/05/21 13:03:58;;;;;;;;;;;20.90;53.10;;;;;;5012482;28;19936;-68
2021/05/21 13:06:26;;;;;;;;;;;21.00;53.40;;;;;;5040465;28;20540;-70
2021/05/21 13:08:52;;;;;;;;;;;21.00;53.40;;;;;;5045927;28;20304;-68
2021/05/21 13:11:18;;;;;;;;;;;21.00;54.10;;;;;;5047036;28;20403;-68
2021/05/21 13:13:44;;;;;;;;;;;21.00;53.30;;;;;;5050459;28;19963;-70
2021/05/21 13:16:10;;;;;;;;;;;21.00;53.30;;;;;;5051493;28;20423;-68
2021/05/21 13:18:38;;;;;;;;;;;21.00;53.20;;;;;;5050053;28;19932;-68
2021/05/21 13:21:04;;;;;;;;;;;21.00;53.20;;;;;;5045139;28;19933;-67
2021/05/21 13:23:31;;;;;;;;;;;21.10;53.20;;;;;;5049048;28;19935;-68
2021/05/21 13:25:57;;;;;;;;;;;21.10;53.20;;;;;;5048165;28;19932;-68
2021/05/21 13:28:23;;;;;;;;;;;21.10;53.00;;;;;;5050018;28;19932;-69
2021/05/21 13:30:49;;;;;;;;;;;21.10;53.00;;;;;;5048129;28;19956;-70
2021/05/21 13:33:15;;;;;;;;;;;21.00;53.00;;;;;;5046814;28;19932;-67
2021/05/21 13:35:41;;;;;;;;;;;21.00;53.00;;;;;;5048859;28;19928;-66
2021/05/21 13:38:07;;;;;;;;;;;21.10;52.90;;;;;;5032289;28;19935;-67
2021/05/21 13:40:34;;;;;;;;;;;21.10;53.00;;;;;;5050614;28;19951;-68
2021/05/21 13:43:00;;;;;;;;;;;21.10;52.90;;;;;;5050202;28;19928;-68
2021/05/21 13:45:27;;;;;;;;;;;21.10;52.70;;;;;;5050425;28;19939;-69
2021/05/21 13:47:54;;;;;;;;;;;21.10;52.90;;;;;;5051042;28;20384;-68
2021/05/21 13:50:20;;;;;;;;;;;21.10;52.80;;;;;;5049740;28;19986;-67
2021/05/21 13:52:46;;;;;;;;;;;21.00;52.70;;;;;;5039083;28;19935;-68
2021/05/21 13:55:12;;;;;;;;;;;21.00;52.60;;;;;;5036681;28;20288;-68
2021/05/21 13:57:39;;;;;;;;;;;21.00;52.70;;;;;;4998608;28;19956;-67
2021/05/21 14:00:06;;;;;;;;;;;21.00;52.70;;;;;;5010741;28;19929;-67
2021/05/21 14:02:32;;;;;;;;;;;21.00;52.90;;;;;;5025718;28;19928;-70
2021/05/21 14:04:58;;;;;;;;;;;20.90;52.70;;;;;;5048165;28;19931;-67
2021/05/21 14:07:24;;;;;;;;;;;20.90;52.60;;;;;;5049359;28;19932;-70
2021/05/21 14:09:50;;;;;;;;;;;20.90;52.80;;;;;;5043470;28;19929;-67
2021/05/21 14:12:17;;;;;;;;;;;20.90;52.80;;;;;;5048520;28;19936;-69
2021/05/21 14:14:44;;;;;;;;;;;20.90;52.70;;;;;;5047787;28;19933;-69